createdAt,value
2023-03-03T00:03:30.317Z,5.93
2023-03-03T00:08:34.517Z,6.47
2023-03-03T00:13:45.138Z,6.82
2023-03-03T00:18:48.928Z,6.90
2023-03-03T00:23:55.080Z,7.18
2023-03-03T00:28:58.079Z,6.85
2023-03-03T00:34:18.348Z,7.03
2023-03-03T00:39:30.059Z,7.60
2023-03-03T00:44:42.489Z,7.72
2023-03-03T00:49:45.537Z,7.22
2023-03-03T00:54:49.731Z,6.82
2023-03-03T00:59:52.555Z,7.07
2023-03-03T01:04:56.528Z,7.10
2023-03-03T01:10:00.693Z,7.25
2023-03-03T01:15:03.960Z,7.10
2023-03-03T01:20:08.730Z,7.15
2023-03-03T01:25:13.031Z,7.45
2023-03-03T01:30:16.801Z,7.38
2023-03-03T01:35:19.962Z,7.35
2023-03-03T01:40:27.952Z,7.68
2023-03-03T01:45:32.566Z,8.38
2023-03-03T01:50:45.968Z,7.50
2023-03-03T01:55:52.980Z,7.18
2023-03-03T02:01:01.138Z,7.15
2023-03-03T02:06:07.133Z,7.00
2023-03-03T02:11:12.027Z,7.30
2023-03-03T02:16:15.314Z,7.38
2023-03-03T02:21:20.945Z,7.57
2023-03-03T02:26:27.029Z,7.50
2023-03-03T02:31:32.110Z,6.97
2023-03-03T02:36:37.070Z,7.45
2023-03-03T02:41:45.808Z,7.40
2023-03-03T02:46:50.535Z,7.28
2023-03-03T02:51:54.448Z,6.93
2023-03-03T02:56:58.731Z,7.35
2023-03-03T03:02:01.847Z,7.10
2023-03-03T03:07:04.726Z,6.68
2023-03-03T03:12:09.171Z,7.15
2023-03-03T03:17:12.701Z,7.20
2023-03-03T03:22:15.519Z,6.88
2023-03-03T03:27:20.243Z,7.53
2023-03-03T03:32:23.108Z,6.35
2023-03-03T03:37:26.011Z,6.90
2023-03-03T03:42:30.189Z,7.10
2023-03-03T03:47:33.081Z,6.65
2023-03-03T03:52:36.186Z,6.28
2023-03-03T03:57:40.356Z,6.30
2023-03-03T04:02:43.425Z,6.63
2023-03-03T04:07:46.655Z,6.22
2023-03-03T04:12:50.981Z,6.93
2023-03-03T04:17:53.805Z,7.03
2023-03-03T04:22:57.950Z,7.03
2023-03-03T04:28:03.954Z,7.32
2023-03-03T04:33:08.911Z,7.03
2023-03-03T04:38:11.729Z,6.57
2023-03-03T04:43:16.136Z,6.03
2023-03-03T04:48:18.979Z,6.35
2023-03-03T04:53:22.188Z,6.70
2023-03-03T04:58:26.404Z,6.45
2023-03-03T05:03:29.312Z,6.28
2023-03-03T05:08:32.152Z,6.10
2023-03-03T05:13:36.342Z,6.28
2023-03-03T05:18:39.482Z,6.50
2023-03-03T05:23:42.328Z,6.07
2023-03-03T05:28:46.563Z,6.65
2023-03-03T05:33:49.359Z,6.20
2023-03-03T05:38:52.263Z,5.72
2023-03-03T05:43:56.485Z,6.55
2023-03-03T05:48:59.407Z,5.95
2023-03-03T05:54:02.329Z,6.78
2023-03-03T05:59:06.512Z,5.78
2023-03-03T06:04:09.810Z,5.88
2023-03-03T06:09:12.646Z,7.65
2023-03-03T06:14:16.825Z,6.00
2023-03-03T06:19:19.708Z,6.40
2023-03-03T06:24:25.236Z,6.28
2023-03-03T06:29:29.862Z,5.82
2023-03-03T06:34:32.750Z,5.75
2023-03-03T06:39:35.650Z,6.05
2023-03-03T06:44:39.974Z,6.68
2023-03-03T06:49:42.770Z,6.28
2023-03-03T06:54:45.631Z,6.20
2023-03-03T06:59:54.178Z,5.60
2023-03-03T07:04:58.226Z,5.85
2023-03-03T07:10:01.790Z,6.32
2023-03-03T07:15:15.915Z,6.05
2023-03-03T07:20:22.006Z,5.20
2023-03-03T07:25:31.843Z,5.68
2023-03-03T07:30:36.098Z,5.30
2023-03-03T07:35:41.915Z,6.20
2023-03-03T07:40:50.492Z,5.57
2023-03-03T07:45:55.546Z,5.55
2023-03-03T07:51:02.365Z,6.00
2023-03-03T07:56:17.107Z,5.20
2023-03-03T08:01:51.906Z,5.18
2023-03-03T08:06:56.781Z,5.13
2023-03-03T08:12:04.079Z,5.43
2023-03-03T08:17:18.421Z,5.18
2023-03-03T08:22:31.332Z,4.72
2023-03-03T08:27:34.206Z,5.22
2023-03-03T08:32:38.457Z,5.07
2023-03-03T08:37:41.401Z,5.25
2023-03-03T08:42:44.215Z,4.93
2023-03-03T08:47:48.389Z,5.07
2023-03-03T08:52:51.412Z,5.10
2023-03-03T08:57:54.253Z,5.95
2023-03-03T09:02:58.449Z,5.65
2023-03-03T09:08:01.815Z,4.75
2023-03-03T09:13:09.520Z,4.97
2023-03-03T09:18:17.651Z,5.13
2023-03-03T09:23:31.344Z,4.65
2023-03-03T09:28:34.962Z,4.80
2023-03-03T09:33:45.892Z,4.68
2023-03-03T09:38:49.628Z,5.78
2023-03-03T09:44:14.087Z,5.38
2023-03-03T09:49:30.769Z,5.55
2023-03-03T09:54:48.141Z,4.50
2023-03-03T10:00:15.807Z,4.60
2023-03-03T10:05:30.796Z,5.05
2023-03-03T10:10:51.600Z,4.28
2023-03-03T10:16:10.259Z,4.30
2023-03-03T10:21:18.556Z,4.47
2023-03-03T10:26:45.247Z,4.78
2023-03-03T10:32:07.243Z,4.88
2023-03-03T10:37:18.242Z,4.78
2023-03-03T10:42:47.729Z,5.38
2023-03-03T10:48:08.384Z,4.28
2023-03-03T10:53:23.842Z,4.07
2023-03-03T10:58:46.424Z,4.18
2023-03-03T11:04:18.361Z,4.45
2023-03-03T11:09:41.186Z,4.78
2023-03-03T11:14:49.744Z,4.35
2023-03-03T11:20:04.861Z,4.88
2023-03-03T11:25:18.942Z,4.35
2023-03-03T11:30:36.637Z,4.40
2023-03-03T11:35:47.424Z,4.85
2023-03-03T11:40:54.892Z,4.30
2023-03-03T11:46:00.977Z,4.63
2023-03-03T11:51:07.285Z,4.70
2023-03-03T11:56:21.927Z,4.60
2023-03-03T12:01:34.824Z,4.03
2023-03-03T12:06:45.250Z,4.10
2023-03-03T12:11:54.402Z,4.00
2023-03-03T12:16:59.521Z,4.22
2023-03-03T12:22:34.047Z,4.13
2023-03-03T12:27:46.364Z,3.67
2023-03-03T12:33:15.783Z,4.40
2023-03-03T12:38:27.614Z,4.00
2023-03-03T12:43:45.172Z,4.00
2023-03-03T12:48:48.727Z,3.80
2023-03-03T12:54:09.473Z,3.80
2023-03-03T12:59:21.389Z,4.43
2023-03-03T13:04:34.955Z,4.47
2023-03-03T13:09:50.233Z,4.15
2023-03-03T13:15:01.176Z,3.72
2023-03-03T13:20:09.441Z,3.90
2023-03-03T13:25:36.347Z,4.20
2023-03-03T13:30:48.472Z,4.40
2023-03-03T13:35:56.127Z,3.60
2023-03-03T13:41:06.777Z,4.10
2023-03-03T13:46:17.366Z,4.00
2023-03-03T13:51:31.693Z,4.25
2023-03-03T13:56:44.203Z,4.32
2023-03-03T14:01:59.192Z,3.90
2023-03-03T14:07:08.322Z,3.72
2023-03-03T14:12:19.286Z,4.15
2023-03-03T14:17:34.602Z,4.07
2023-03-03T14:22:45.901Z,4.50
2023-03-03T14:28:13.970Z,3.63
2023-03-03T14:33:30.932Z,3.90
2023-03-03T14:38:54.609Z,3.85
2023-03-03T14:43:59.391Z,3.90
2023-03-03T14:49:05.448Z,3.60
2023-03-03T14:54:14.420Z,3.85
2023-03-03T14:59:21.190Z,3.78
2023-03-03T15:04:31.039Z,4.25
2023-03-03T15:09:41.295Z,4.18
2023-03-03T15:14:47.717Z,3.97
2023-03-03T15:20:01.647Z,3.97
2023-03-03T15:25:13.020Z,3.65
2023-03-03T15:30:26.044Z,4.20
2023-03-03T15:35:38.721Z,4.00
2023-03-03T15:40:46.995Z,3.75
2023-03-03T15:45:53.645Z,3.80
2023-03-03T15:51:07.474Z,4.28
2023-03-03T15:56:26.555Z,4.10
2023-03-03T16:01:33.955Z,3.95
2023-03-03T16:06:48.609Z,4.30
2023-03-03T16:11:58.036Z,4.18
2023-03-03T16:17:13.001Z,3.60
2023-03-03T16:22:38.047Z,3.78
2023-03-03T16:27:44.610Z,4.43
2023-03-03T16:32:51.725Z,4.47
2023-03-03T16:38:00.650Z,6.10
2023-03-03T16:43:15.505Z,6.97
2023-03-03T16:48:36.244Z,5.93
2023-03-03T16:53:53.162Z,5.70
2023-03-03T16:59:12.707Z,5.55
2023-03-03T17:04:31.085Z,5.47
2023-03-03T17:09:52.744Z,5.75
2023-03-03T17:15:08.434Z,6.30
2023-03-03T17:20:22.954Z,5.90
2023-03-03T17:25:36.071Z,5.20
2023-03-03T17:30:49.313Z,5.38
2023-03-03T17:36:03.763Z,6.32
2023-03-03T17:41:13.420Z,5.63
2023-03-03T17:46:22.814Z,5.53
2023-03-03T17:51:46.498Z,5.80
2023-03-03T17:57:00.804Z,5.07
2023-03-03T18:02:32.441Z,5.13
2023-03-03T18:07:55.445Z,4.68
2023-03-03T18:13:09.101Z,4.72
2023-03-03T18:18:32.076Z,4.80
2023-03-03T18:23:43.340Z,4.80
2023-03-03T18:28:50.932Z,4.55
2023-03-03T18:34:04.366Z,4.70
2023-03-03T18:39:14.030Z,5.10
2023-03-03T18:44:30.452Z,4.80
2023-03-03T18:49:57.544Z,4.93
2023-03-03T18:55:21.117Z,4.47
2023-03-03T19:00:29.660Z,4.93
2023-03-03T19:05:40.084Z,4.95
2023-03-03T19:10:51.362Z,4.60
2023-03-03T19:15:59.231Z,5.05
2023-03-03T19:21:04.711Z,5.13
2023-03-03T19:26:51.797Z,4.53
2023-03-03T19:32:06.391Z,4.40
2023-03-03T19:37:23.247Z,4.82
2023-03-03T19:42:39.899Z,5.00
2023-03-03T19:47:48.956Z,4.53
2023-03-03T19:53:01.591Z,4.90
2023-03-03T19:58:17.613Z,4.45
2023-03-03T20:03:41.929Z,4.20
2023-03-03T20:08:52.546Z,4.90
2023-03-03T20:14:01.791Z,5.05
2023-03-03T20:19:18.444Z,4.60
2023-03-03T20:24:36.667Z,4.18
2023-03-03T20:30:03.684Z,4.47
2023-03-03T20:35:21.111Z,4.13
2023-03-03T20:40:33.466Z,4.75
2023-03-03T20:45:47.607Z,4.38
2023-03-03T20:51:02.342Z,5.07
2023-03-03T20:56:10.797Z,4.55
2023-03-03T21:01:16.912Z,4.50
2023-03-03T21:06:21.872Z,4.65
2023-03-03T21:11:40.930Z,4.47
2023-03-03T21:16:44.082Z,4.90
2023-03-03T21:21:50.546Z,4.65
2023-03-03T21:26:55.483Z,4.75
2023-03-03T21:32:00.480Z,4.75
2023-03-03T21:37:06.419Z,4.85
2023-03-03T21:42:11.952Z,5.07
2023-03-03T21:47:16.837Z,3.97
2023-03-03T21:52:23.212Z,3.90
2023-03-03T21:57:26.153Z,4.80
2023-03-03T22:02:29.092Z,4.40
2023-03-03T22:07:33.335Z,4.32
2023-03-03T22:12:36.176Z,4.82
2023-03-03T22:17:40.671Z,4.03
2023-03-03T22:22:44.979Z,4.30
2023-03-03T22:27:47.801Z,4.57
2023-03-03T22:32:52.327Z,4.88
2023-03-03T22:37:56.484Z,4.40
2023-03-03T22:42:59.475Z,4.80
2023-03-03T22:48:02.314Z,4.75
2023-03-03T22:53:06.674Z,4.70
2023-03-03T22:58:10.231Z,4.85
2023-03-03T23:03:13.698Z,5.10
2023-03-03T23:08:19.565Z,5.10
2023-03-03T23:13:23.248Z,4.85
2023-03-03T23:18:26.138Z,5.10
2023-03-03T23:23:30.627Z,5.28
2023-03-03T23:28:33.476Z,5.00
2023-03-03T23:33:36.339Z,5.45
2023-03-03T23:38:43.036Z,5.32
2023-03-03T23:43:46.059Z,5.18
2023-03-03T23:48:49.042Z,4.80
2023-03-03T23:53:53.203Z,5.10
2023-03-03T23:58:56.093Z,5.57
